createdAt,value
2018-10-05T00:00:59.037Z,8.60
2018-10-05T00:03:28.920Z,8.54
2018-10-05T00:05:58.834Z,8.48
2018-10-05T00:08:28.759Z,8.48
2018-10-05T00:10:58.634Z,8.46
2018-10-05T00:13:28.465Z,8.41
2018-10-05T00:15:58.339Z,8.40
2018-10-05T00:18:28.155Z,8.37
2018-10-05T00:20:57.955Z,8.39
2018-10-05T00:23:27.876Z,8.36
2018-10-05T00:25:57.713Z,8.31
2018-10-05T00:28:27.647Z,8.21
2018-10-05T00:30:57.529Z,8.21
2018-10-05T00:33:27.388Z,8.21
2018-10-05T00:35:57.262Z,8.24
2018-10-05T00:38:27.069Z,8.26
2018-10-05T00:40:59.240Z,8.19
2018-10-05T00:43:29.915Z,8.14
2018-10-05T00:45:59.942Z,8.11
2018-10-05T00:48:29.837Z,8.06
2018-10-05T00:50:59.731Z,8.06
2018-10-05T00:53:29.689Z,8.03
2018-10-05T00:55:59.459Z,8.00
2018-10-05T00:58:29.363Z,7.95
2018-10-05T01:00:59.197Z,7.91
2018-10-05T01:03:29.034Z,7.88
2018-10-05T01:05:58.962Z,7.90
2018-10-05T01:08:28.762Z,7.91
2018-10-05T01:10:58.670Z,7.94
2018-10-05T01:13:28.526Z,7.96
2018-10-05T01:15:58.395Z,7.97
2018-10-05T01:18:28.290Z,7.93
2018-10-05T01:20:58.132Z,7.88
2018-10-05T01:23:28.005Z,7.84
2018-10-05T01:25:57.856Z,7.83
2018-10-05T01:28:27.708Z,7.71
2018-10-05T01:30:57.585Z,7.65
2018-10-05T01:33:27.408Z,7.63
2018-10-05T01:35:57.216Z,7.57
2018-10-05T01:38:27.114Z,7.56
2018-10-05T01:40:56.982Z,7.57
2018-10-05T01:43:26.828Z,7.59
2018-10-05T01:45:56.741Z,7.58
2018-10-05T01:48:26.663Z,7.56
2018-10-05T01:50:56.500Z,7.56
2018-10-05T01:53:26.369Z,7.61
2018-10-05T01:55:56.240Z,7.58
2018-10-05T01:58:26.064Z,7.52
2018-10-05T02:00:55.929Z,7.51
2018-10-05T02:03:25.807Z,7.49
2018-10-05T02:05:55.664Z,7.46
2018-10-05T02:08:25.516Z,7.46
2018-10-05T02:10:55.356Z,7.45
2018-10-05T02:13:25.233Z,7.44
2018-10-05T02:15:55.035Z,7.41
2018-10-05T02:18:24.877Z,7.39
2018-10-05T02:20:54.764Z,7.40
2018-10-05T02:23:24.624Z,7.36
2018-10-05T02:25:54.503Z,7.36
2018-10-05T02:28:24.336Z,7.35
2018-10-05T02:30:54.254Z,7.37
2018-10-05T02:33:24.129Z,7.36
2018-10-05T02:35:53.961Z,7.38
2018-10-05T02:38:23.849Z,7.40
2018-10-05T02:40:53.722Z,7.47
2018-10-05T02:43:23.592Z,7.46
2018-10-05T02:45:53.421Z,7.41
2018-10-05T02:48:23.506Z,7.36
2018-10-05T02:50:53.420Z,7.36
2018-10-05T02:53:23.280Z,7.32
2018-10-05T02:55:53.167Z,7.28
2018-10-05T02:58:23.019Z,7.27
2018-10-05T03:01:03.804Z,7.28
2018-10-05T03:03:33.661Z,7.19
2018-10-05T03:06:03.410Z,7.11
2018-10-05T03:08:33.271Z,7.04
2018-10-05T03:11:03.086Z,7.00
2018-10-05T03:13:32.964Z,6.99
2018-10-05T03:16:02.879Z,6.94
2018-10-05T03:18:32.690Z,6.97
2018-10-05T03:21:02.666Z,6.96
2018-10-05T03:23:32.513Z,6.95
2018-10-05T03:26:02.371Z,6.94
2018-10-05T03:28:32.213Z,6.94
2018-10-05T03:31:01.984Z,6.95
2018-10-05T03:33:31.824Z,6.94
2018-10-05T03:36:01.695Z,6.93
2018-10-05T03:38:31.528Z,6.92
2018-10-05T03:41:01.339Z,6.92
2018-10-05T03:43:31.101Z,5.81
2018-10-05T03:46:01.010Z,6.91
2018-10-05T03:48:30.901Z,6.88
2018-10-05T03:51:00.753Z,6.86
2018-10-05T03:53:30.592Z,6.83
2018-10-05T03:56:00.446Z,6.79
2018-10-05T03:58:30.366Z,6.80
2018-10-05T04:01:00.301Z,6.83
2018-10-05T04:03:30.167Z,6.84
2018-10-05T04:06:00.101Z,6.88
2018-10-05T04:08:29.866Z,6.89
2018-10-05T04:10:59.757Z,6.91
2018-10-05T04:13:29.702Z,6.91
2018-10-05T04:15:59.670Z,6.93
2018-10-05T04:18:30.256Z,6.92
2018-10-05T04:21:00.211Z,6.91
2018-10-05T04:23:30.554Z,6.92
2018-10-05T04:26:01.225Z,6.84
2018-10-05T04:28:31.209Z,6.75
2018-10-05T04:31:01.201Z,6.72
2018-10-05T04:33:31.742Z,6.69
2018-10-05T04:36:01.997Z,6.69
2018-10-05T04:38:32.096Z,6.69
2018-10-05T04:41:02.564Z,6.65
2018-10-05T04:43:33.193Z,6.63
2018-10-05T04:46:03.928Z,6.60
2018-10-05T04:48:33.758Z,6.57
2018-10-05T04:51:04.088Z,6.55
2018-10-05T04:53:33.972Z,6.51
2018-10-05T04:56:03.904Z,6.47
2018-10-05T04:58:33.744Z,6.45
2018-10-05T05:01:03.622Z,6.46
2018-10-05T05:03:33.493Z,6.46
2018-10-05T05:06:03.346Z,6.45
2018-10-05T05:08:33.340Z,6.48
2018-10-05T05:11:03.246Z,6.55
2018-10-05T05:13:33.251Z,6.63
2018-10-05T05:16:03.231Z,6.71
2018-10-05T05:18:33.131Z,6.80
2018-10-05T05:21:03.151Z,6.82
2018-10-05T05:23:33.152Z,6.92
2018-10-05T05:26:03.172Z,7.07
2018-10-05T05:28:33.180Z,7.23
2018-10-05T05:31:03.156Z,7.43
2018-10-05T05:33:33.249Z,7.97
2018-10-05T05:36:03.196Z,8.02
2018-10-05T05:38:33.098Z,8.04
2018-10-05T05:41:03.097Z,8.04
2018-10-05T05:43:33.147Z,8.01
2018-10-05T05:46:03.185Z,7.99
2018-10-05T05:48:33.190Z,7.98
2018-10-05T05:51:03.195Z,8.00
2018-10-05T05:53:33.148Z,8.02
2018-10-05T05:56:03.170Z,8.06
2018-10-05T05:58:33.090Z,8.11
2018-10-05T06:01:06.941Z,8.12
2018-10-05T06:03:38.537Z,8.23
2018-10-05T06:06:08.590Z,8.32
2018-10-05T06:08:38.616Z,8.45
2018-10-05T06:11:08.682Z,8.54
2018-10-05T06:13:38.631Z,8.59
2018-10-05T06:16:08.703Z,8.65
2018-10-05T06:18:38.644Z,8.73
2018-10-05T06:21:08.643Z,8.83
2018-10-05T06:23:38.544Z,8.94
2018-10-05T06:26:08.589Z,9.01
2018-10-05T06:28:38.568Z,9.14
2018-10-05T06:31:08.657Z,9.25
2018-10-05T06:33:38.667Z,9.32
2018-10-05T06:36:08.636Z,9.44
2018-10-05T06:38:38.643Z,9.68
2018-10-05T06:41:08.626Z,9.92
2018-10-05T06:43:38.571Z,10.08
2018-10-05T06:46:08.947Z,10.17
2018-10-05T06:48:38.934Z,10.27
2018-10-05T06:51:08.958Z,10.32
2018-10-05T06:53:38.915Z,10.37
2018-10-05T06:56:08.955Z,10.36
2018-10-05T06:58:39.319Z,9.83
2018-10-05T07:01:09.437Z,10.43
2018-10-05T07:03:39.398Z,10.49
2018-10-05T07:06:09.510Z,10.53
2018-10-05T07:08:39.517Z,10.62
2018-10-05T07:11:09.528Z,10.84
2018-10-05T07:13:39.495Z,10.94
2018-10-05T07:16:09.474Z,10.34
2018-10-05T07:18:39.500Z,11.05
2018-10-05T07:21:09.514Z,11.18
2018-10-05T07:23:39.511Z,11.29
2018-10-05T07:26:09.526Z,11.41
2018-10-05T07:28:39.651Z,11.53
2018-10-05T07:31:09.636Z,11.64
2018-10-05T07:33:39.681Z,11.79
2018-10-05T07:36:09.676Z,11.98
2018-10-05T07:38:39.596Z,12.06
2018-10-05T07:41:09.595Z,12.08
2018-10-05T07:43:39.780Z,12.12
2018-10-05T07:46:09.754Z,12.15
2018-10-05T07:48:39.702Z,12.21
2018-10-05T07:51:09.626Z,12.27
2018-10-05T07:53:39.585Z,12.36
2018-10-05T07:56:09.559Z,12.47
2018-10-05T07:58:39.571Z,12.56
2018-10-05T08:01:09.639Z,12.62
2018-10-05T08:03:39.607Z,12.72
2018-10-05T08:06:09.675Z,12.89
2018-10-05T08:08:39.866Z,13.10
2018-10-05T08:11:09.982Z,13.34
2018-10-05T08:13:40.074Z,13.60
2018-10-05T08:16:10.124Z,13.77
2018-10-05T08:18:40.115Z,14.06
2018-10-05T08:21:10.196Z,14.21
2018-10-05T08:23:40.192Z,14.41
2018-10-05T08:26:10.270Z,14.63
2018-10-05T08:28:40.259Z,14.94
2018-10-05T08:31:10.352Z,15.20
2018-10-05T08:33:40.420Z,15.35
2018-10-05T08:36:10.489Z,15.69
2018-10-05T08:38:40.546Z,15.97
2018-10-05T08:41:10.538Z,16.12
2018-10-05T08:43:40.587Z,16.13
2018-10-05T08:46:10.740Z,16.24
2018-10-05T08:48:40.948Z,16.25
2018-10-05T08:51:11.008Z,16.57
2018-10-05T08:53:40.946Z,16.90
2018-10-05T08:56:10.947Z,17.15
2018-10-05T08:58:40.931Z,17.36
2018-10-05T09:01:10.955Z,17.46
2018-10-05T09:03:41.061Z,17.65
2018-10-05T09:06:11.037Z,17.81
2018-10-05T09:08:41.063Z,17.78
2018-10-05T09:11:11.150Z,17.81
2018-10-05T09:13:41.191Z,17.75
2018-10-05T09:16:11.424Z,17.78
2018-10-05T09:18:41.475Z,17.88
2018-10-05T09:21:11.428Z,17.86
2018-10-05T09:23:41.440Z,17.79
2018-10-05T09:26:11.392Z,17.88
2018-10-05T09:28:41.445Z,17.91
2018-10-05T09:31:11.458Z,17.97
2018-10-05T09:33:41.416Z,17.96
2018-10-05T09:36:11.354Z,17.93
2018-10-05T09:38:41.392Z,17.95
2018-10-05T09:41:11.414Z,17.89
2018-10-05T09:43:41.520Z,17.85
2018-10-05T09:46:11.636Z,17.78
2018-10-05T09:48:41.595Z,17.85
2018-10-05T09:51:11.603Z,17.83
2018-10-05T09:53:41.605Z,17.87
2018-10-05T09:56:11.615Z,17.87
2018-10-05T09:58:41.605Z,17.98
2018-10-05T10:01:16.623Z,18.07
2018-10-05T10:03:46.564Z,17.91
2018-10-05T10:06:16.510Z,17.77
2018-10-05T10:08:46.439Z,17.86
2018-10-05T10:11:16.467Z,17.84
2018-10-05T10:13:46.849Z,17.75
2018-10-05T10:16:16.880Z,17.77
2018-10-05T10:18:46.984Z,17.78
2018-10-05T10:21:16.962Z,17.24
2018-10-05T10:23:46.926Z,17.85
2018-10-05T10:26:16.866Z,17.83
2018-10-05T10:28:47.020Z,17.74
2018-10-05T10:31:16.903Z,17.60
2018-10-05T10:33:46.941Z,17.41
2018-10-05T10:36:16.857Z,17.39
2018-10-05T10:38:46.974Z,17.34
2018-10-05T10:41:17.018Z,17.25
2018-10-05T10:43:46.965Z,17.23
2018-10-05T10:46:16.938Z,17.21
2018-10-05T10:48:46.861Z,17.21
2018-10-05T10:51:16.886Z,17.13
2018-10-05T10:53:46.930Z,17.08
2018-10-05T10:56:17.033Z,16.96
2018-10-05T10:58:46.958Z,16.94
2018-10-05T11:01:16.923Z,16.28
2018-10-05T11:03:46.948Z,17.08
2018-10-05T11:06:16.947Z,17.19
2018-10-05T11:08:46.918Z,17.29
2018-10-05T11:11:17.030Z,17.35
2018-10-05T11:13:47.010Z,17.33
2018-10-05T11:16:16.963Z,17.40
2018-10-05T11:18:46.955Z,17.36
2018-10-05T11:21:17.080Z,17.28
2018-10-05T11:23:47.111Z,17.26
2018-10-05T11:26:17.148Z,17.31
2018-10-05T11:28:47.167Z,17.39
2018-10-05T11:31:17.147Z,17.46
2018-10-05T11:33:47.113Z,17.49
2018-10-05T11:36:17.037Z,17.31
2018-10-05T11:38:47.030Z,17.25
2018-10-05T11:41:17.042Z,17.28
2018-10-05T11:43:47.028Z,17.21
2018-10-05T11:46:17.167Z,17.22
2018-10-05T11:48:47.099Z,17.24
2018-10-05T11:51:17.082Z,17.25
2018-10-05T11:53:47.015Z,17.24
2018-10-05T11:56:17.033Z,17.27
2018-10-05T11:58:46.989Z,17.26
2018-10-05T12:01:17.018Z,17.21
2018-10-05T12:03:47.058Z,17.12
2018-10-05T12:06:17.183Z,17.08
2018-10-05T12:08:47.228Z,17.10
2018-10-05T12:11:17.227Z,17.09
2018-10-05T12:13:47.209Z,17.12
2018-10-05T12:16:17.208Z,17.09
2018-10-05T12:18:47.279Z,17.17
2018-10-05T12:21:17.310Z,17.21
2018-10-05T12:23:47.261Z,17.19
2018-10-05T12:26:17.299Z,17.18
2018-10-05T12:28:47.251Z,17.18
2018-10-05T12:31:17.303Z,17.09
2018-10-05T12:33:47.456Z,16.98
2018-10-05T12:36:17.471Z,16.98
2018-10-05T12:38:47.504Z,17.17
2018-10-05T12:41:17.529Z,17.20
2018-10-05T12:43:47.628Z,17.09
2018-10-05T12:46:17.669Z,17.03
2018-10-05T12:48:47.670Z,17.13
2018-10-05T12:51:17.712Z,17.02
2018-10-05T12:53:47.710Z,17.00
2018-10-05T12:56:17.674Z,16.97
2018-10-05T12:58:47.655Z,16.95
2018-10-05T13:01:17.701Z,16.92
2018-10-05T13:03:47.719Z,16.91
2018-10-05T13:06:18.034Z,16.88
2018-10-05T13:08:48.055Z,16.86
2018-10-05T13:11:18.051Z,16.85
2018-10-05T13:13:48.039Z,16.84
2018-10-05T13:16:17.990Z,16.84
2018-10-05T13:18:48.020Z,16.85
2018-10-05T13:21:17.990Z,16.84
2018-10-05T13:23:48.085Z,16.85
2018-10-05T13:26:18.071Z,16.87
2018-10-05T13:28:48.134Z,16.87
2018-10-05T13:31:18.131Z,16.81
2018-10-05T13:33:48.167Z,16.79
2018-10-05T13:36:18.295Z,16.77
2018-10-05T13:38:48.593Z,16.77
2018-10-05T13:41:18.792Z,16.82
2018-10-05T13:43:49.017Z,16.83
2018-10-05T13:46:19.003Z,16.79
2018-10-05T13:48:49.523Z,16.77
2018-10-05T13:51:19.514Z,16.76
2018-10-05T13:53:49.533Z,16.76
2018-10-05T13:56:19.537Z,16.82
2018-10-05T13:58:49.670Z,16.85
2018-10-05T14:01:19.622Z,16.80
2018-10-05T14:03:49.596Z,16.72
2018-10-05T14:06:19.626Z,16.68
2018-10-05T14:08:49.704Z,16.70
2018-10-05T14:11:19.696Z,16.77
2018-10-05T14:13:49.731Z,16.83
2018-10-05T14:16:19.759Z,16.85
2018-10-05T14:18:49.730Z,16.82
2018-10-05T14:21:19.729Z,16.82
2018-10-05T14:23:49.818Z,16.74
2018-10-05T14:26:19.850Z,16.66
2018-10-05T14:28:49.867Z,16.66
2018-10-05T14:31:19.786Z,16.65
2018-10-05T14:33:49.997Z,16.65
2018-10-05T14:36:19.935Z,16.67
2018-10-05T14:38:50.561Z,16.61
2018-10-05T14:41:20.478Z,16.65
2018-10-05T14:43:50.498Z,16.59
2018-10-05T14:46:20.587Z,16.57
2018-10-05T14:48:50.587Z,16.53
2018-10-05T14:51:20.608Z,16.52
2018-10-05T14:53:50.666Z,16.59
2018-10-05T14:56:20.731Z,16.60
2018-10-05T14:58:50.640Z,16.60
2018-10-05T15:01:20.601Z,16.28
2018-10-05T15:03:50.617Z,16.73
2018-10-05T15:06:20.646Z,16.71
2018-10-05T15:08:50.640Z,16.70
2018-10-05T15:11:20.683Z,16.67
2018-10-05T15:13:50.654Z,16.63
2018-10-05T15:16:20.685Z,16.63
2018-10-05T15:18:50.606Z,16.61
2018-10-05T15:21:20.662Z,16.58
2018-10-05T15:23:50.661Z,16.52
2018-10-05T15:26:20.629Z,16.61
2018-10-05T15:28:50.682Z,16.55
2018-10-05T15:31:20.523Z,16.59
2018-10-05T15:33:50.608Z,16.51
2018-10-05T15:36:20.663Z,16.43
2018-10-05T15:38:50.764Z,16.46
2018-10-05T15:41:20.716Z,16.43
2018-10-05T15:43:50.672Z,16.35
2018-10-05T15:47:05.722Z,16.26
2018-10-05T15:49:36.436Z,16.18
2018-10-05T15:52:06.407Z,16.08
2018-10-05T15:54:36.460Z,16.02
2018-10-05T15:57:06.531Z,16.00
2018-10-05T15:59:36.993Z,15.96
2018-10-05T16:02:07.108Z,15.86
2018-10-05T16:04:36.997Z,15.02
2018-10-05T16:07:07.088Z,15.67
2018-10-05T16:09:37.047Z,15.58
2018-10-05T16:12:07.024Z,15.49
2018-10-05T16:14:37.124Z,15.40
2018-10-05T16:17:07.054Z,15.26
2018-10-05T16:19:37.111Z,15.16
2018-10-05T16:22:07.144Z,15.06
2018-10-05T16:24:42.313Z,14.96
2018-10-05T16:27:12.994Z,14.88
2018-10-05T16:29:42.945Z,14.81
2018-10-05T16:32:13.249Z,14.76
2018-10-05T16:34:43.277Z,14.73
2018-10-05T16:37:13.271Z,14.67
2018-10-05T16:39:43.207Z,14.59
2018-10-05T16:42:13.196Z,14.49
2018-10-05T16:44:43.311Z,14.39
2018-10-05T16:47:13.309Z,14.32
2018-10-05T16:49:43.330Z,14.26
2018-10-05T16:52:13.303Z,14.28
2018-10-05T16:54:43.471Z,14.27
2018-10-05T16:57:13.464Z,14.19
2018-10-05T16:59:43.445Z,14.08
2018-10-05T17:02:13.448Z,13.96
2018-10-05T17:04:43.437Z,13.84
2018-10-05T17:07:13.516Z,13.76
2018-10-05T17:09:43.499Z,13.68
2018-10-05T17:12:13.443Z,13.62
2018-10-05T17:14:43.404Z,13.60
2018-10-05T17:17:13.488Z,13.52
2018-10-05T17:19:43.518Z,13.39
2018-10-05T17:22:13.540Z,13.42
2018-10-05T17:24:43.575Z,13.33
2018-10-05T17:27:13.509Z,13.19
2018-10-05T17:29:43.552Z,13.11
2018-10-05T17:32:13.398Z,12.98
2018-10-05T17:34:43.253Z,12.92
2018-10-05T17:37:13.114Z,12.84
2018-10-05T17:39:43.005Z,12.78
2018-10-05T17:42:12.957Z,12.73
2018-10-05T17:44:42.816Z,12.60
2018-10-05T17:47:13.959Z,12.53
2018-10-05T17:49:43.837Z,12.53
2018-10-05T17:52:13.695Z,12.49
2018-10-05T17:54:43.543Z,12.56
2018-10-05T17:57:13.954Z,12.54
2018-10-05T17:59:43.718Z,12.57
2018-10-05T18:02:13.640Z,12.51
2018-10-05T18:04:43.555Z,12.42
2018-10-05T18:07:13.431Z,12.35
2018-10-05T18:09:43.367Z,12.27
2018-10-05T18:12:13.191Z,12.29
2018-10-05T18:14:43.124Z,12.28
2018-10-05T18:17:13.076Z,12.21
2018-10-05T18:19:43.096Z,12.10
2018-10-05T18:22:12.935Z,12.04
2018-10-05T18:24:42.851Z,12.02
2018-10-05T18:27:12.703Z,12.00
2018-10-05T18:29:42.593Z,11.96
2018-10-05T18:32:12.533Z,11.97
2018-10-05T18:34:42.595Z,11.85
2018-10-05T18:37:12.677Z,11.78
2018-10-05T18:39:42.534Z,11.72
2018-10-05T18:42:12.568Z,11.61
2018-10-05T18:44:42.551Z,11.62
2018-10-05T18:47:12.558Z,11.55
2018-10-05T18:49:42.680Z,11.44
2018-10-05T18:52:12.632Z,11.44
2018-10-05T18:54:42.544Z,11.34
2018-10-05T18:57:15.504Z,11.20
2018-10-05T18:59:45.529Z,11.17
2018-10-05T19:02:17.245Z,11.13
2018-10-05T19:04:47.715Z,11.10
2018-10-05T19:07:17.749Z,11.12
2018-10-05T19:09:47.768Z,11.22
2018-10-05T19:12:17.739Z,11.39
2018-10-05T19:14:47.659Z,11.24
2018-10-05T19:17:17.571Z,11.30
2018-10-05T19:19:47.539Z,11.27
2018-10-05T19:22:17.489Z,11.34
2018-10-05T19:24:47.402Z,11.32
2018-10-05T19:27:17.187Z,11.23
2018-10-05T19:29:47.112Z,11.10
2018-10-05T19:32:17.455Z,11.03
2018-10-05T19:34:48.457Z,10.97
2018-10-05T19:37:18.316Z,10.97
2018-10-05T19:39:48.214Z,10.35
2018-10-05T19:42:18.218Z,10.84
2018-10-05T19:44:48.108Z,10.83
2018-10-05T19:47:18.076Z,10.73
2018-10-05T19:49:48.001Z,10.78
2018-10-05T19:52:17.948Z,10.75
2018-10-05T19:54:47.995Z,10.70
2018-10-05T19:57:17.928Z,10.78
2018-10-05T19:59:47.900Z,10.74
2018-10-05T20:02:17.859Z,10.73
2018-10-05T20:04:47.715Z,10.73
2018-10-05T20:07:17.658Z,10.67
2018-10-05T20:09:47.571Z,10.66
2018-10-05T20:12:17.410Z,10.62
2018-10-05T20:14:47.339Z,10.59
2018-10-05T20:17:17.326Z,10.56
2018-10-05T20:19:47.285Z,10.53
2018-10-05T20:22:17.122Z,10.53
2018-10-05T20:24:46.978Z,9.86
2018-10-05T20:27:16.868Z,10.38
2018-10-05T20:29:47.119Z,10.36
2018-10-05T20:32:17.019Z,10.32
2018-10-05T20:34:46.989Z,10.32
2018-10-05T20:37:16.955Z,10.21
2018-10-05T20:39:46.720Z,10.13
2018-10-05T20:42:16.604Z,10.10
2018-10-05T20:44:46.515Z,10.00
2018-10-05T20:47:16.395Z,10.02
2018-10-05T20:49:47.002Z,10.08
2018-10-05T20:52:16.933Z,10.10
2018-10-05T20:54:46.705Z,10.07
2018-10-05T20:57:16.638Z,10.09
2018-10-05T20:59:46.572Z,10.06
2018-10-05T21:02:16.442Z,10.05
2018-10-05T21:04:46.307Z,10.03
2018-10-05T21:07:16.239Z,9.96
2018-10-05T21:09:46.139Z,9.80
2018-10-05T21:12:15.934Z,9.65
2018-10-05T21:14:45.807Z,9.64
2018-10-05T21:17:15.674Z,9.71
2018-10-05T21:19:45.629Z,9.70
2018-10-05T21:22:15.412Z,9.68
2018-10-05T21:24:45.216Z,9.64
2018-10-05T21:27:15.111Z,9.63
2018-10-05T21:29:44.926Z,9.60
2018-10-05T21:32:14.818Z,9.58
2018-10-05T21:34:44.706Z,9.58
2018-10-05T21:37:14.451Z,9.60
2018-10-05T21:39:44.325Z,9.58
2018-10-05T21:42:14.586Z,9.58
2018-10-05T21:44:44.530Z,9.59
2018-10-05T21:47:14.387Z,9.54
2018-10-05T21:49:44.391Z,9.51
2018-10-05T21:52:14.315Z,9.51
2018-10-05T21:54:44.051Z,9.48
2018-10-05T21:57:13.883Z,9.39
2018-10-05T21:59:43.730Z,9.40
2018-10-05T22:02:13.622Z,9.33
2018-10-05T22:04:43.453Z,9.34
2018-10-05T22:07:13.253Z,9.38
2018-10-05T22:09:43.166Z,9.35
2018-10-05T22:12:12.928Z,9.35
2018-10-05T22:14:42.790Z,9.36
2018-10-05T22:17:12.660Z,9.41
2018-10-05T22:19:42.565Z,9.33
2018-10-05T22:22:12.342Z,9.30
2018-10-05T22:24:42.193Z,9.27
2018-10-05T22:27:12.002Z,9.19
2018-10-05T22:29:41.869Z,9.05
2018-10-05T22:32:11.666Z,9.06
2018-10-05T22:34:41.495Z,9.05
2018-10-05T22:37:11.615Z,9.02
2018-10-05T22:39:41.425Z,8.94
2018-10-05T22:42:11.301Z,8.92
2018-10-05T22:44:41.136Z,8.93
2018-10-05T22:47:10.962Z,9.06
2018-10-05T22:49:40.884Z,9.15
2018-10-05T22:52:10.752Z,9.19
2018-10-05T22:54:40.609Z,9.17
2018-10-05T22:57:10.511Z,9.16
2018-10-05T22:59:40.359Z,9.15
2018-10-05T23:02:10.250Z,9.16
2018-10-05T23:04:40.082Z,9.17
2018-10-05T23:07:09.852Z,9.18
2018-10-05T23:09:39.674Z,9.21
2018-10-05T23:12:09.512Z,9.18
2018-10-05T23:14:39.520Z,9.15
2018-10-05T23:17:09.367Z,9.06
2018-10-05T23:19:39.139Z,9.02
2018-10-05T23:22:09.032Z,8.98
2018-10-05T23:24:38.992Z,8.94
2018-10-05T23:27:08.942Z,8.90
2018-10-05T23:29:38.772Z,8.86
2018-10-05T23:32:08.619Z,8.89
2018-10-05T23:34:38.474Z,8.88
2018-10-05T23:37:08.443Z,8.83
2018-10-05T23:39:38.260Z,8.81
2018-10-05T23:42:08.145Z,8.77
2018-10-05T23:44:37.966Z,8.74
2018-10-05T23:47:07.818Z,8.72
2018-10-05T23:49:37.664Z,8.72
2018-10-05T23:52:18.351Z,8.64
2018-10-05T23:54:48.191Z,8.51
2018-10-05T23:57:18.056Z,8.46
2018-10-05T23:59:47.932Z,8.53
